HONEYDEW (HNY)

Elevation: 370' · MATTOLE R basin · Operator: CA Dept of Water Resources

Provisional data, subject to change.
Query executed Friday at 19:39:56   clock

Select a sensor type for a plot of data.

Earlier

Date PPT INC    RAIN    TEMP MN    TEMP MX    TEMP AV   
 INCHES   INCHES   DEG F   DEG F   DEG F  
10/14/2012 -- 0.00 52 77 60
10/15/2012 -- 0.00 54 75 64
10/16/2012 0.08 0.08 47 69 61
10/17/2012 0.00 0.08 39 79 56
10/18/2012 0.00 0.08 42 86 58
10/19/2012 0.04 0.12 41 72 55
10/20/2012 0.00 0.12 41 62 54
10/21/2012 0.16 0.28 33 63 48
10/22/2012 1.20 1.48 42 53 47
10/23/2012 0.52 2.00 41 55 47
10/24/2012 0.32 2.32 44 58 49
10/25/2012 0.00 2.32 42 59 48
10/26/2012 0.00 2.32 39 63 51
10/27/2012 0.00 2.32 50 69 58
10/28/2012 0.00 2.32 49 70 58
10/29/2012 0.00 2.32 53 67 59
10/30/2012 0.00 2.32 53 69 60
10/31/2012 1.40 3.72 55 60 57
11/01/2012 0.12 3.84 46 58 52
11/02/2012 0.08 3.92 45 59 52
11/03/2012 0.00 3.92 50 64 56
11/04/2012 0.00 3.92 48 69 56
11/05/2012 0.00 3.92 45 72 55
11/06/2012 0.00 3.92 48 70 55
11/07/2012 0.00 3.92 42 60 50
11/08/2012 0.36 4.28 39 50 43
11/09/2012 0.08 4.36 36 49 41
11/10/2012 0.16 4.52 36 48 40
11/11/2012 0.00 4.52 34 54 43
11/12/2012 0.00 4.52 46 59 52
11/13/2012 0.24 4.76 51 61 55
11/14/2012 0.00 4.76 46 61 52

Later | Latest

Warning! This data is preliminary and subject to revision.

Download Data Now Download Data Now | Show HNY Map | Plot HNY Data | 1 Month HNY Data | Real-Time HNY Data | HNY Info